Darstellungsparameter: Aktuell verwendete Einstellungen:
Skalierung der Graphiken ... ?
xyx+y,   Skalierungsfaktor:      Skalierung: Modus: x, Faktor: 1
Darstellungszeitraum ... ?
Vom - - bis: - -   Zeitraum: 22.05.2010 - 22.05.2010
Min/Max/Avg-Anzeige ... ?
Zeige MMA aktuell
Zeige MMA Monat
Zeige MMA alles
Zeige --A aktuell
Zeige --A Monat
Zeige --A alles
Keine MMA-Anzeige
MMA:
Average (ber die Originaldaten)
MMA-Basis: 22.05.2010 - 22.05.2010
Quicknavigation für Darstellung... ?
Tage:      1T, 2T, 3T, 5T -1T -2T -3T -5T +1T +2T +3T +5T
Wochen: 1W, 2W, 3W -1W -2W -3W +1W +2W +3W
Monate: 1M, 3M, 6M -1M -3M -6M +1M +3M +6M
Jahre:    1J, 3J, 5J, 10J -1J -3J -5J -10J +1J +3J +5J +10J
Nutze für die Darstellung ... ?
Originaldaten oder Mittelwerte auf ...
Stundenbasis Tagesbasis Wochenbasis
Monatsbasis Jahresbasis      Datenbasis: Original-Daten
Darstellen als:
Statistik (Auto) Statistik J:M      Darstellung:
Zur Graphik,    zurück zur Übersicht aller Sensoren.
 
Tabellarische Datenbersicht: ?
 
Sensor: Nr:Datum:Temp:Abs-Feuchte:Windchill:Wind:
Aussen-T/F 1 22-05-2010 00:02:04 15.6 C 7.58 g/m*3 15.6 C 0 km/h
2 22-05-2010 00:14:04 15.4 C 7.49 g/m*3 15.4 C 0 km/h
3 22-05-2010 00:26:04 15.1 C 7.61 g/m*3 15.1 C 0 km/h
4 22-05-2010 00:38:04 14.8 C 7.73 g/m*3 14.8 C 0 km/h
5 22-05-2010 00:50:04 14.5 C 7.71 g/m*3 14.5 C 0 km/h
6 22-05-2010 01:02:04 14.4 C 7.79 g/m*3 14.4 C 0 km/h
7 22-05-2010 01:14:04 14.1 C 7.77 g/m*3 14.1 C 0 km/h
8 22-05-2010 01:26:04 13.9 C 7.91 g/m*3 13.9 C 0 km/h
9 22-05-2010 01:38:04 13.6 C 7.77 g/m*3 13.6 C 0 km/h
10 22-05-2010 01:50:04 13.4 C 7.9 g/m*3 13.4 C 0 km/h
11 22-05-2010 02:02:04 13.2 C 7.92 g/m*3 13.2 C 0 km/h
12 22-05-2010 02:14:04 12.9 C 7.89 g/m*3 12.9 C 0 km/h
13 22-05-2010 02:26:04 12.7 C 7.9 g/m*3 12.7 C 0 km/h
14 22-05-2010 02:38:04 12.5 C 7.92 g/m*3 12.5 C 0 km/h
15 22-05-2010 02:50:04 12.4 C 7.98 g/m*3 12.4 C 0 km/h
16 22-05-2010 03:02:04 12.3 C 7.93 g/m*3 12.3 C 0 km/h
17 22-05-2010 03:14:04 12.1 C 7.94 g/m*3 12.1 C 0 km/h
18 22-05-2010 03:26:04 12 C 7.89 g/m*3 12 C 0 km/h
19 22-05-2010 03:38:05 11.9 C 7.94 g/m*3 11.9 C 0 km/h
20 22-05-2010 03:50:05 11.7 C 7.95 g/m*3 11.7 C 0 km/h
21 22-05-2010 04:02:05 11.5 C 7.95 g/m*3 11.5 C 0 km/h
22 22-05-2010 04:14:05 11.2 C 7.91 g/m*3 11.2 C 0 km/h
23 22-05-2010 04:26:05 11 C 7.81 g/m*3 11 C 0 km/h
24 22-05-2010 04:38:05 10.9 C 7.96 g/m*3 10.9 C 0 km/h
25 22-05-2010 04:50:05 10.7 C 7.86 g/m*3 10.7 C 0 km/h
Sensor: Nr:Datum:Temp:Abs-Feuchte:Windchill:Wind:
Aussen-T/F 26 22-05-2010 05:02:05 10.7 C 7.86 g/m*3 10.7 C 0 km/h
27 22-05-2010 05:14:05 10.3 C 7.76 g/m*3 10.3 C 0 km/h
28 22-05-2010 05:26:05 10.3 C 7.76 g/m*3 10.3 C 0 km/h
29 22-05-2010 05:38:05 10.2 C 7.8 g/m*3 10.2 C 0 km/h
30 22-05-2010 05:50:05 10 C 7.71 g/m*3 10 C 0 km/h
31 22-05-2010 06:02:05 9.9 C 7.75 g/m*3 9.9 C 0 km/h
32 22-05-2010 06:14:05 9.9 C 7.75 g/m*3 9.9 C 0 km/h
33 22-05-2010 06:26:05 9.9 C 7.75 g/m*3 9.9 C 0 km/h
34 22-05-2010 06:38:05 10.1 C 7.75 g/m*3 10.1 C 0 km/h
35 22-05-2010 06:50:05 10 C 7.71 g/m*3 10 C 0 km/h
36 22-05-2010 07:02:05 10.2 C 7.8 g/m*3 10.2 C 0 km/h
37 22-05-2010 07:14:05 10.2 C 7.8 g/m*3 10.2 C 0 km/h
38 22-05-2010 07:26:03 10.3 C 7.85 g/m*3 10.3 C 0 km/h
39 22-05-2010 07:38:03 10.7 C 8.05 g/m*3 10.7 C 0 km/h
40 22-05-2010 07:50:02 11.3 C 8.36 g/m*3 11.3 C 0 km/h
41 22-05-2010 08:02:02 11.7 C 8.26 g/m*3 11.7 C 0 km/h
42 22-05-2010 08:14:02 12 C 8.1 g/m*3 12 C 0 km/h
43 22-05-2010 08:26:02 12.3 C 8.04 g/m*3 12.3 C 0 km/h
44 22-05-2010 08:38:03 12.6 C 7.85 g/m*3 12.6 C 0 km/h
45 22-05-2010 08:50:02 13 C 7.48 g/m*3 13 C 0 km/h
46 22-05-2010 09:02:02 13.3 C 7.39 g/m*3 13.3 C 0 km/h
47 22-05-2010 09:14:02 13.7 C 7.46 g/m*3 13.7 C 0 km/h
48 22-05-2010 09:26:02 13.9 C 7.55 g/m*3 13.9 C 0 km/h
49 22-05-2010 09:38:02 14.3 C 7.13 g/m*3 14.3 C 0 km/h
50 22-05-2010 09:50:02 14.8 C 7.09 g/m*3 14.8 C 0 km/h
Sensor: Nr:Datum:Temp:Abs-Feuchte:Windchill:Wind:
Aussen-T/F 51 22-05-2010 10:02:02 15.3 C 6.4 g/m*3 15.3 C 0 km/h
52 22-05-2010 10:14:02 15.8 C 6.33 g/m*3 15.8 C 0 km/h
53 22-05-2010 10:26:02 16 C 6.13 g/m*3 16 C 0 km/h
54 22-05-2010 10:38:02 16.7 C 6.4 g/m*3 16.7 C 0 km/h
55 22-05-2010 10:50:01 17 C 6.22 g/m*3 17 C 0 km/h
56 22-05-2010 11:02:02 17.6 C 6.3 g/m*3 17.6 C 0 km/h
57 22-05-2010 11:14:02 18 C 6.14 g/m*3 18 C 0 km/h
58 22-05-2010 11:26:01 18.1 C 6.03 g/m*3 18.1 C 0 km/h
59 22-05-2010 11:38:02 18.7 C 6.08 g/m*3 18.7 C 0 km/h
60 22-05-2010 11:50:02 19.1 C 5.9 g/m*3 19.1 C 0 km/h
61 22-05-2010 12:02:02 19.3 C 5.81 g/m*3 19.3 C 0 km/h
62 22-05-2010 12:14:02 20.2 C 5.94 g/m*3 20.2 C 0 km/h
63 22-05-2010 12:26:01 21.8 C 5.95 g/m*3 21.8 C 0 km/h
64 22-05-2010 12:38:01 21.3 C 5.59 g/m*3 21.3 C 0 km/h
65 22-05-2010 12:50:01 23.3 C 5.85 g/m*3 23.3 C 0 km/h
66 22-05-2010 13:02:01 23.7 C 5.78 g/m*3 23.7 C 0 km/h
67 22-05-2010 13:14:01 24.2 C 5.72 g/m*3 24.2 C 0 km/h
68 22-05-2010 13:26:01 24.2 C 5.5 g/m*3 24.2 C 0 km/h
69 22-05-2010 13:38:00 24.7 C 5.43 g/m*3 24.7 C 0 km/h
70 22-05-2010 13:50:01 24.4 C 5.56 g/m*3 24.4 C 0 km/h
71 22-05-2010 14:02:01 24 C 5 g/m*3 24 C 0 km/h
72 22-05-2010 14:14:01 23.6 C 5.74 g/m*3 23.6 C 0 km/h
73 22-05-2010 14:26:01 24 C 5.66 g/m*3 24 C 0 km/h
74 22-05-2010 14:38:01 23.9 C 5.84 g/m*3 23.9 C 0 km/h
75 22-05-2010 14:50:01 24.3 C 5.75 g/m*3 24.3 C 0 km/h
Sensor: Nr:Datum:Temp:Abs-Feuchte:Windchill:Wind:
Aussen-T/F 76 22-05-2010 15:02:01 24.9 C 5.95 g/m*3 24.9 C 0 km/h
77 22-05-2010 15:14:01 25.4 C 5.89 g/m*3 25.4 C 0 km/h
78 22-05-2010 15:26:02 25.6 C 5.95 g/m*3 25.6 C 0 km/h
79 22-05-2010 15:38:01 25.3 C 6.09 g/m*3 25.3 C 0 km/h
80 22-05-2010 15:50:03 25.5 C 5.92 g/m*3 25.5 C 0 km/h
81 22-05-2010 16:02:02 25.7 C 6.22 g/m*3 25.7 C 0 km/h
82 22-05-2010 16:14:02 25.8 C 6.02 g/m*3 25.8 C 0 km/h
83 22-05-2010 16:26:03 26.1 C 6.12 g/m*3 26.1 C 0 km/h
84 22-05-2010 16:38:02 25.6 C 6.19 g/m*3 25.6 C 0 km/h
85 22-05-2010 16:50:02 26.3 C 6.19 g/m*3 26.3 C 0 km/h
86 22-05-2010 17:02:01 26.7 C 6.33 g/m*3 26.7 C 0 km/h
87 22-05-2010 17:14:01 27 C 6.18 g/m*3 27 C 0 km/h
88 22-05-2010 17:26:02 27.1 C 6.47 g/m*3 27.1 C 0 km/h
89 22-05-2010 17:38:01 27.2 C 6.51 g/m*3 27.2 C 0 km/h
90 22-05-2010 17:50:02 26.4 C 6.47 g/m*3 26.4 C 0 km/h
91 22-05-2010 18:02:02 26.4 C 6.47 g/m*3 26.4 C 0 km/h
92 22-05-2010 18:14:02 26.9 C 6.65 g/m*3 26.9 C 0 km/h
93 22-05-2010 18:26:02 26.6 C 6.54 g/m*3 26.6 C 0 km/h
94 22-05-2010 18:38:03 26.1 C 6.37 g/m*3 26.1 C 0 km/h
95 22-05-2010 18:50:02 26.8 C 6.62 g/m*3 26.8 C 0 km/h
96 22-05-2010 19:02:02 26.4 C 6.47 g/m*3 26.4 C 0 km/h
97 22-05-2010 19:14:02 26.6 C 6.54 g/m*3 26.6 C 0 km/h
98 22-05-2010 19:26:02 26.4 C 6.72 g/m*3 26.4 C 0 km/h
99 22-05-2010 19:38:02 26.2 C 6.65 g/m*3 26.2 C 0 km/h
100 22-05-2010 19:50:01 25.9 C 7.02 g/m*3 25.9 C 0 km/h
Sensor: Nr:Datum:Temp:Abs-Feuchte:Windchill:Wind:
Aussen-T/F 101 22-05-2010 20:02:02 25.4 C 6.83 g/m*3 25.4 C 0 km/h
102 22-05-2010 20:14:02 24.9 C 7.1 g/m*3 24.9 C 0 km/h
103 22-05-2010 20:26:01 24.6 C 7.43 g/m*3 24.6 C 0 km/h
104 22-05-2010 20:38:02 24.2 C 7.48 g/m*3 24.2 C 0 km/h
105 22-05-2010 20:50:02 23.3 C 7.32 g/m*3 23.3 C 0 km/h
106 22-05-2010 21:02:02 22.7 C 7.48 g/m*3 22.7 C 0 km/h
107 22-05-2010 21:14:02 22 C 7.76 g/m*3 22 C 0 km/h
108 22-05-2010 21:26:02 21.2 C 7.41 g/m*3 21.2 C 0 km/h
109 22-05-2010 21:38:02 20.8 C 7.24 g/m*3 20.8 C 0 km/h
110 22-05-2010 21:50:02 20.3 C 7.03 g/m*3 20.3 C 0 km/h
111 22-05-2010 22:02:03 19.9 C 7.22 g/m*3 19.9 C 0 km/h
112 22-05-2010 22:14:03 19.5 C 6.88 g/m*3 19.5 C 0 km/h
113 22-05-2010 22:26:02 19.4 C 6.84 g/m*3 19.4 C 0 km/h
114 22-05-2010 22:38:02 19.2 C 7.26 g/m*3 19.2 C 0 km/h
115 22-05-2010 22:50:02 18.7 C 7.36 g/m*3 18.7 C 0 km/h
116 22-05-2010 23:02:02 18.4 C 7.39 g/m*3 18.4 C 0 km/h
117 22-05-2010 23:14:02 18.1 C 7.42 g/m*3 18.1 C 0 km/h
118 22-05-2010 23:26:01 17.9 C 7.48 g/m*3 17.9 C 0 km/h
119 22-05-2010 23:38:02 17.6 C 7.5 g/m*3 17.6 C 0 km/h
120 22-05-2010 23:50:02 17.5 C 7.6 g/m*3 17.5 C 0 km/h

Legende:
   Min
   Max


Maximal/Minimal-Werte vom 22.05.2010 - 22.05.2010

Sensor Min Max Avg
Temp
(Aussen-T/F)
9.9 °C
22-05-2010  06:02:05
27.2 °C
22-05-2010  17:38:01
18.33 °C
Abs-Feuchte
(Aussen-T/F)
5 g/m*3
22-05-2010  14:02:01
8.36 g/m*3
22-05-2010  07:50:02
6.95 g/m*3
Windchill
(Aussen-T/F)
9.9 C
22-05-2010  06:02:05
27.2 C
22-05-2010  17:38:01
18.17 C

Die Daten stammen von einer Davis Vantage Pro 2 Wetter-Station und werden unter Linux mit der Software wview2wettercgi und aufbereitet. Alle Angaben erfolgen ohne Gewähr für ihre Vollständigkeit oder Richtigkeit.
Kontakt: Rainer Krienke krienke@uni-koblenz.de . Meine Webseiten an der Uni Koblenz oder privat.
Version: $Revision: 0.78 $